createdAt,value
2018-12-25T00:00:14.270Z,4.57
2018-12-25T00:02:41.959Z,5.07
2018-12-25T00:05:09.968Z,5.73
2018-12-25T00:07:37.736Z,5.57
2018-12-25T00:10:05.686Z,5.83
2018-12-25T00:12:33.673Z,5.40
2018-12-25T00:15:02.433Z,5.70
2018-12-25T00:17:30.251Z,8.37
2018-12-25T00:19:58.533Z,6.20
2018-12-25T00:22:27.452Z,5.63
2018-12-25T00:24:56.411Z,5.63
2018-12-25T00:27:24.339Z,5.83
2018-12-25T00:29:52.204Z,5.67
2018-12-25T00:32:20.232Z,5.30
2018-12-25T00:34:48.466Z,5.30
2018-12-25T00:37:16.692Z,5.47
2018-12-25T00:39:44.541Z,6.67
2018-12-25T00:42:12.412Z,6.17
2018-12-25T00:44:40.292Z,6.30
2018-12-25T00:47:08.013Z,6.30
2018-12-25T00:49:36.774Z,7.13
2018-12-25T00:52:04.594Z,6.93
2018-12-25T00:54:32.249Z,6.77
2018-12-25T00:57:00.539Z,6.20
2018-12-25T00:59:28.430Z,6.07
2018-12-25T01:01:56.474Z,6.63
2018-12-25T01:04:24.844Z,6.23
2018-12-25T01:06:52.685Z,6.67
2018-12-25T01:09:20.593Z,6.40
2018-12-25T01:11:48.306Z,6.77
2018-12-25T01:14:16.119Z,6.67
2018-12-25T01:16:43.765Z,6.93
2018-12-25T01:19:11.515Z,6.90
2018-12-25T01:21:39.271Z,7.20
2018-12-25T01:24:07.237Z,7.30
2018-12-25T01:26:34.918Z,6.80
2018-12-25T01:29:02.613Z,7.00
2018-12-25T01:31:30.352Z,6.80
2018-12-25T01:33:58.138Z,6.63
2018-12-25T01:36:25.843Z,6.50
2018-12-25T01:38:53.627Z,6.50
2018-12-25T01:41:21.340Z,6.47
2018-12-25T01:43:49.039Z,6.70
2018-12-25T01:46:18.761Z,6.07
2018-12-25T01:48:46.830Z,6.40
2018-12-25T01:51:18.105Z,7.27
2018-12-25T01:53:45.772Z,6.20
2018-12-25T01:56:13.513Z,6.87
2018-12-25T01:58:41.341Z,6.60
2018-12-25T02:01:09.082Z,7.00
2018-12-25T02:03:36.791Z,6.87
2018-12-25T02:06:04.640Z,6.80
2018-12-25T02:08:32.459Z,6.93
2018-12-25T02:11:01.998Z,6.97
2018-12-25T02:13:29.644Z,7.30
2018-12-25T02:15:57.694Z,6.63
2018-12-25T02:18:25.487Z,6.83
2018-12-25T02:20:53.428Z,7.57
2018-12-25T02:23:21.115Z,7.73
2018-12-25T02:25:48.760Z,7.40
2018-12-25T02:28:16.605Z,7.17
2018-12-25T02:30:44.360Z,7.23
2018-12-25T02:33:12.112Z,7.90
2018-12-25T02:35:39.836Z,7.67
2018-12-25T02:38:07.575Z,7.60
2018-12-25T02:40:35.252Z,7.90
2018-12-25T02:43:03.695Z,7.10
2018-12-25T02:45:31.363Z,7.77
2018-12-25T02:47:59.257Z,7.67
2018-12-25T02:50:27.463Z,7.30
2018-12-25T02:52:55.327Z,8.00
2018-12-25T02:55:23.226Z,7.87
2018-12-25T02:57:50.910Z,7.50
2018-12-25T03:00:18.712Z,6.73
2018-12-25T03:02:46.427Z,6.93
2018-12-25T03:05:14.429Z,6.60
2018-12-25T03:07:42.216Z,6.07
2018-12-25T03:10:09.913Z,6.73
2018-12-25T03:12:37.724Z,5.90
2018-12-25T03:15:05.932Z,5.70
2018-12-25T03:17:33.643Z,5.70
2018-12-25T03:20:01.402Z,5.73
2018-12-25T03:22:29.386Z,6.80
2018-12-25T03:24:57.150Z,6.07
2018-12-25T03:27:24.969Z,6.60
2018-12-25T03:29:52.850Z,6.50
2018-12-25T03:32:20.512Z,6.67
2018-12-25T03:34:48.141Z,6.50
2018-12-25T03:37:15.868Z,6.77
2018-12-25T03:39:43.760Z,7.37
2018-12-25T03:42:11.454Z,7.20
2018-12-25T03:44:39.644Z,6.53
2018-12-25T03:47:07.297Z,7.17
2018-12-25T03:49:35.863Z,7.07
2018-12-25T03:52:03.643Z,7.70
2018-12-25T03:54:31.665Z,7.23
2018-12-25T03:56:59.554Z,7.30
2018-12-25T03:59:27.217Z,7.67
2018-12-25T04:01:54.946Z,7.17
2018-12-25T04:04:22.734Z,7.37
2018-12-25T04:06:50.565Z,7.30
2018-12-25T04:09:18.236Z,7.17
2018-12-25T04:11:46.151Z,7.00
2018-12-25T04:14:13.813Z,7.90
2018-12-25T04:16:41.526Z,7.43
2018-12-25T04:19:09.437Z,7.00
2018-12-25T04:21:37.399Z,7.50
2018-12-25T04:24:05.346Z,7.60
2018-12-25T04:26:35.746Z,7.03
2018-12-25T04:29:03.640Z,6.73
2018-12-25T04:31:31.453Z,8.57
2018-12-25T04:33:59.128Z,9.37
2018-12-25T04:36:27.895Z,11.77
2018-12-25T04:38:55.525Z,10.80
2018-12-25T04:41:23.750Z,9.53
2018-12-25T04:43:51.367Z,10.40
2018-12-25T04:46:19.103Z,7.53
2018-12-25T04:48:46.775Z,7.40
2018-12-25T04:51:14.446Z,6.97
2018-12-25T04:53:42.308Z,6.70
2018-12-25T04:56:09.960Z,6.53
2018-12-25T04:58:37.796Z,6.03
2018-12-25T05:01:05.496Z,5.70
2018-12-25T05:03:33.190Z,6.10
2018-12-25T05:06:00.885Z,6.13
2018-12-25T05:08:28.666Z,5.90
2018-12-25T05:10:56.740Z,6.17
2018-12-25T05:13:24.449Z,5.63
2018-12-25T05:15:52.361Z,5.63
2018-12-25T05:18:20.126Z,6.43
2018-12-25T05:20:47.846Z,6.03
2018-12-25T05:23:15.585Z,6.93
2018-12-25T05:25:43.417Z,6.17
2018-12-25T05:28:11.157Z,6.40
2018-12-25T05:30:38.944Z,6.57
2018-12-25T05:33:06.799Z,6.50
2018-12-25T05:35:34.450Z,7.17
2018-12-25T05:38:02.104Z,8.00
2018-12-25T05:40:29.905Z,8.40
2018-12-25T05:42:57.600Z,8.33
2018-12-25T05:45:25.732Z,8.17
2018-12-25T05:47:53.529Z,7.50
2018-12-25T05:50:21.632Z,7.97
2018-12-25T05:52:49.259Z,7.80
2018-12-25T05:55:19.369Z,8.43
2018-12-25T05:57:47.084Z,8.50
2018-12-25T06:00:14.724Z,8.17
2018-12-25T06:02:42.777Z,8.27
2018-12-25T06:05:11.771Z,7.87
2018-12-25T06:07:39.707Z,8.43
2018-12-25T06:10:07.406Z,8.60
2018-12-25T06:12:35.073Z,8.50
2018-12-25T06:15:02.829Z,8.67
2018-12-25T06:17:30.620Z,8.80
2018-12-25T06:19:58.373Z,8.70
2018-12-25T06:22:26.134Z,11.33
2018-12-25T06:24:53.962Z,10.50
2018-12-25T06:27:21.749Z,10.17
2018-12-25T06:29:49.626Z,8.77
2018-12-25T06:32:17.303Z,8.63
2018-12-25T06:34:45.050Z,8.53
2018-12-25T06:37:12.757Z,8.60
2018-12-25T06:39:40.454Z,9.10
2018-12-25T06:42:08.091Z,10.10
2018-12-25T06:44:35.752Z,9.77
2018-12-25T06:47:03.448Z,7.83
2018-12-25T06:49:31.289Z,6.83
2018-12-25T06:51:59.094Z,7.00
2018-12-25T06:54:27.064Z,6.67
2018-12-25T06:56:55.098Z,7.00
2018-12-25T06:59:22.746Z,7.00
2018-12-25T07:01:50.402Z,7.47
2018-12-25T07:04:18.160Z,7.20
2018-12-25T07:06:45.822Z,7.00
2018-12-25T07:09:13.504Z,6.70
2018-12-25T07:11:41.231Z,6.27
2018-12-25T07:14:08.858Z,6.30
2018-12-25T07:16:36.612Z,6.63
2018-12-25T07:19:04.232Z,6.17
2018-12-25T07:21:31.905Z,5.63
2018-12-25T07:23:59.645Z,4.97
2018-12-25T07:26:27.450Z,5.30
2018-12-25T07:28:55.265Z,4.40
2018-12-25T07:31:23.162Z,4.40
2018-12-25T07:33:50.931Z,4.07
2018-12-25T07:36:18.583Z,3.87
2018-12-25T07:38:46.309Z,3.90
2018-12-25T07:41:13.963Z,3.80
2018-12-25T07:43:41.576Z,4.00
2018-12-25T07:46:09.229Z,4.10
2018-12-25T07:48:36.865Z,4.27
2018-12-25T07:51:04.544Z,4.30
2018-12-25T07:53:32.577Z,4.90
2018-12-25T07:56:00.246Z,5.40
2018-12-25T07:58:27.949Z,4.50
2018-12-25T08:00:55.743Z,5.00
2018-12-25T08:03:23.405Z,4.50
2018-12-25T08:05:51.071Z,4.37
2018-12-25T08:08:18.720Z,4.27
2018-12-25T08:10:46.461Z,3.77
2018-12-25T08:13:14.128Z,4.57
2018-12-25T08:15:41.912Z,4.30
2018-12-25T08:18:09.542Z,4.57
2018-12-25T08:20:37.228Z,6.23
2018-12-25T08:23:04.940Z,6.67
2018-12-25T08:25:33.666Z,7.13
2018-12-25T08:28:01.720Z,8.10
2018-12-25T08:30:29.465Z,7.70
2018-12-25T08:32:57.150Z,7.87
2018-12-25T08:35:24.943Z,8.17
2018-12-25T08:37:52.680Z,8.00
2018-12-25T08:40:20.398Z,7.90
2018-12-25T08:42:48.050Z,6.10
2018-12-25T08:45:15.785Z,6.20
2018-12-25T08:47:43.455Z,5.63
2018-12-25T08:50:11.760Z,5.23
2018-12-25T08:52:39.372Z,5.70
2018-12-25T08:55:08.131Z,5.30
2018-12-25T08:57:35.789Z,3.23
2018-12-25T09:00:05.059Z,3.67
2018-12-25T09:02:32.714Z,3.03
2018-12-25T09:05:00.473Z,3.60
2018-12-25T09:07:28.238Z,3.33
2018-12-25T09:09:57.532Z,2.83
2018-12-25T09:12:25.587Z,2.90
2018-12-25T09:14:53.248Z,2.70
2018-12-25T09:17:20.891Z,2.90
2018-12-25T09:19:48.532Z,3.30
2018-12-25T09:22:16.241Z,3.30
2018-12-25T09:24:43.855Z,3.67
2018-12-25T09:27:11.572Z,3.80
2018-12-25T09:29:39.304Z,3.87
2018-12-25T09:32:07.990Z,3.50
2018-12-25T09:34:35.912Z,3.60
2018-12-25T09:37:07.401Z,3.30
2018-12-25T09:39:35.045Z,3.17
2018-12-25T09:42:02.792Z,3.70
2018-12-25T09:44:30.476Z,3.60
2018-12-25T09:46:58.596Z,4.30
2018-12-25T09:49:26.452Z,3.13
2018-12-25T09:51:54.630Z,3.50
2018-12-25T09:54:22.536Z,3.40
2018-12-25T09:56:50.288Z,2.97
2018-12-25T09:59:17.947Z,2.90
2018-12-25T10:01:45.649Z,2.90
2018-12-25T10:04:15.724Z,2.70
2018-12-25T10:06:43.470Z,2.40
2018-12-25T10:09:12.623Z,2.90
2018-12-25T10:11:44.301Z,2.40
2018-12-25T10:14:10.175Z,2.50
2018-12-25T10:16:37.911Z,2.60
2018-12-25T10:19:05.714Z,2.10
2018-12-25T10:21:33.692Z,2.53
2018-12-25T10:24:01.594Z,2.50
2018-12-25T10:26:29.375Z,2.30
2018-12-25T10:28:57.448Z,2.13
2018-12-25T10:31:25.474Z,2.00
2018-12-25T10:33:53.196Z,2.43
2018-12-25T10:36:20.926Z,2.20
2018-12-25T10:38:50.022Z,2.20
2018-12-25T10:41:17.708Z,2.10
2018-12-25T10:43:45.713Z,2.20
2018-12-25T10:46:13.555Z,2.07
2018-12-25T10:48:41.471Z,1.97
2018-12-25T10:51:09.370Z,2.10
2018-12-25T10:53:40.290Z,2.00
2018-12-25T10:56:07.948Z,2.10
2018-12-25T10:58:35.768Z,2.30
2018-12-25T11:01:19.953Z,2.50
2018-12-25T11:03:47.583Z,2.23
2018-12-25T11:06:15.250Z,2.10
2018-12-25T11:08:43.086Z,2.40
2018-12-25T11:11:10.790Z,2.33
2018-12-25T11:13:38.475Z,2.17
2018-12-25T11:16:06.148Z,2.27
2018-12-25T11:18:34.148Z,2.37
2018-12-25T11:21:01.912Z,2.37
2018-12-25T11:23:29.839Z,2.50
2018-12-25T11:25:57.557Z,2.40
2018-12-25T11:28:25.398Z,2.23
2018-12-25T11:30:53.204Z,2.57
2018-12-25T11:33:23.233Z,2.27
2018-12-25T11:35:51.013Z,2.10
2018-12-25T11:38:19.373Z,2.00
2018-12-25T11:40:47.193Z,2.10
2018-12-25T11:43:15.318Z,2.37
2018-12-25T11:45:43.774Z,2.30
2018-12-25T11:48:11.791Z,2.53
2018-12-25T11:50:40.251Z,2.50
2018-12-25T11:53:08.070Z,2.47
2018-12-25T11:55:40.453Z,2.50
2018-12-25T11:58:08.275Z,2.70
2018-12-25T12:00:36.127Z,2.70
2018-12-25T12:03:04.071Z,2.60
2018-12-25T12:05:32.046Z,2.50
2018-12-25T12:07:59.725Z,2.77
2018-12-25T12:10:27.712Z,3.00
2018-12-25T12:12:55.547Z,2.90
2018-12-25T12:15:23.274Z,2.70
2018-12-25T12:17:51.047Z,2.80
2018-12-25T12:20:18.786Z,3.00
2018-12-25T12:22:46.727Z,2.73
2018-12-25T12:25:14.581Z,3.00
2018-12-25T12:27:42.473Z,2.90
2018-12-25T12:30:10.249Z,7.23
2018-12-25T12:32:38.071Z,8.10
2018-12-25T12:35:05.779Z,8.70
2018-12-25T12:37:33.644Z,8.80
2018-12-25T12:40:01.575Z,9.00
2018-12-25T12:42:29.537Z,8.60
2018-12-25T12:44:57.859Z,8.47
2018-12-25T12:47:25.709Z,8.20
2018-12-25T12:49:53.788Z,9.13
2018-12-25T12:52:21.949Z,8.77
2018-12-25T12:54:53.238Z,8.77
2018-12-25T12:57:22.429Z,8.37
2018-12-25T12:59:50.112Z,8.57
2018-12-25T13:02:17.796Z,8.70
2018-12-25T13:04:45.678Z,9.03
2018-12-25T13:07:13.641Z,8.90
2018-12-25T13:09:41.508Z,8.33
2018-12-25T13:12:09.681Z,9.23
2018-12-25T13:14:37.423Z,8.77
2018-12-25T13:17:05.623Z,8.70
2018-12-25T13:19:33.687Z,8.53
2018-12-25T13:22:01.763Z,8.77
2018-12-25T13:24:29.943Z,8.30
2018-12-25T13:26:57.826Z,8.50
2018-12-25T13:29:25.507Z,9.17
2018-12-25T13:31:53.221Z,8.57
2018-12-25T13:34:20.923Z,8.03
2018-12-25T13:36:48.832Z,8.47
2018-12-25T13:39:16.893Z,8.57
2018-12-25T13:41:44.602Z,8.70
2018-12-25T13:44:12.380Z,9.20
2018-12-25T13:46:40.261Z,8.67
2018-12-25T13:49:07.972Z,8.60
2018-12-25T13:51:35.670Z,8.33
2018-12-25T13:54:03.357Z,8.53
2018-12-25T13:56:31.218Z,8.80
2018-12-25T13:58:58.947Z,8.80
2018-12-25T14:01:26.646Z,8.50
2018-12-25T14:03:54.556Z,8.20
2018-12-25T14:06:22.316Z,8.33
2018-12-25T14:08:50.112Z,8.27
2018-12-25T14:11:17.809Z,8.40
2018-12-25T14:13:45.530Z,8.57
2018-12-25T14:16:13.333Z,8.80
2018-12-25T14:18:41.242Z,8.37
2018-12-25T14:21:08.982Z,7.87
2018-12-25T14:23:36.798Z,8.60
2018-12-25T14:26:04.689Z,8.17
2018-12-25T14:28:32.631Z,8.00
2018-12-25T14:31:00.417Z,8.33
2018-12-25T14:33:28.206Z,8.07
2018-12-25T14:35:56.331Z,8.37
2018-12-25T14:38:24.132Z,8.50
2018-12-25T14:40:51.840Z,8.33
2018-12-25T14:43:19.486Z,8.87
2018-12-25T14:45:47.228Z,8.83
2018-12-25T14:48:15.050Z,8.57
2018-12-25T14:50:42.870Z,8.60
2018-12-25T14:53:10.605Z,8.80
2018-12-25T14:55:39.165Z,8.30
2018-12-25T14:58:06.997Z,9.00
2018-12-25T15:00:34.879Z,8.73
2018-12-25T15:03:02.569Z,8.63
2018-12-25T15:05:30.471Z,9.00
2018-12-25T15:07:58.457Z,8.77
2018-12-25T15:10:26.371Z,9.03
2018-12-25T15:12:54.177Z,9.03
2018-12-25T15:15:21.902Z,8.37
2018-12-25T15:17:49.641Z,9.30
2018-12-25T15:20:17.392Z,9.07
2018-12-25T15:22:45.071Z,9.43
2018-12-25T15:25:12.963Z,10.13
2018-12-25T15:27:40.763Z,10.40
2018-12-25T15:30:08.592Z,10.23
2018-12-25T15:32:36.354Z,10.40
2018-12-25T15:35:07.735Z,10.27
2018-12-25T15:37:35.523Z,11.93
2018-12-25T15:40:03.670Z,11.40
2018-12-25T15:42:31.438Z,11.93
2018-12-25T15:44:59.483Z,12.13
2018-12-25T15:47:27.122Z,11.30
2018-12-25T15:49:54.813Z,10.97
2018-12-25T15:52:22.629Z,11.10
2018-12-25T15:54:50.333Z,11.63
2018-12-25T15:57:18.078Z,11.67
2018-12-25T15:59:45.759Z,12.73
2018-12-25T16:02:13.557Z,12.67
2018-12-25T16:04:41.358Z,12.27
2018-12-25T16:07:09.072Z,12.10
2018-12-25T16:09:36.848Z,12.63
2018-12-25T16:12:04.973Z,12.00
2018-12-25T16:14:32.793Z,11.47
2018-12-25T16:17:00.561Z,12.03
2018-12-25T16:19:28.235Z,12.53
2018-12-25T16:21:55.808Z,12.27
2018-12-25T16:24:27.497Z,12.87
2018-12-25T16:26:53.300Z,13.10
2018-12-25T16:29:20.987Z,12.77
2018-12-25T16:31:49.041Z,13.40
2018-12-25T16:34:16.842Z,14.37
2018-12-25T16:36:44.610Z,15.30
2018-12-25T16:39:12.273Z,15.47
2018-12-25T16:41:40.070Z,15.77
2018-12-25T16:44:07.904Z,15.70
2018-12-25T16:46:35.668Z,15.27
2018-12-25T16:49:03.375Z,14.97
2018-12-25T16:51:31.119Z,14.33
2018-12-25T16:53:58.876Z,15.13
2018-12-25T16:56:27.425Z,15.20
2018-12-25T16:58:55.108Z,28.27
2018-12-25T17:01:24.043Z,13.80
2018-12-25T17:03:51.761Z,13.60
2018-12-25T17:06:19.423Z,13.27
2018-12-25T17:08:47.122Z,14.03
2018-12-25T17:11:15.801Z,14.33
2018-12-25T17:13:43.553Z,18.07
2018-12-25T17:16:11.281Z,28.13
2018-12-25T17:18:38.964Z,28.67
2018-12-25T17:21:06.616Z,28.00
2018-12-25T17:23:34.475Z,23.97
2018-12-25T17:26:02.186Z,24.13
2018-12-25T17:28:30.052Z,19.00
2018-12-25T17:30:57.864Z,21.50
2018-12-25T17:33:25.492Z,19.70
2018-12-25T17:35:53.281Z,19.20
2018-12-25T17:38:20.908Z,20.10
2018-12-25T17:40:48.661Z,20.43
2018-12-25T17:43:16.382Z,19.40
2018-12-25T17:45:44.125Z,20.87
2018-12-25T17:48:11.855Z,20.03
2018-12-25T17:50:39.545Z,18.37
2018-12-25T17:53:07.284Z,21.17
2018-12-25T17:55:35.008Z,19.70
2018-12-25T17:58:03.044Z,19.77
2018-12-25T18:00:30.759Z,19.87
2018-12-25T18:02:58.648Z,20.43
2018-12-25T18:05:26.300Z,18.93
2018-12-25T18:07:55.855Z,19.80
2018-12-25T18:10:23.614Z,21.77
2018-12-25T18:12:51.285Z,19.90
2018-12-25T18:15:19.403Z,17.23
2018-12-25T18:17:47.069Z,15.33
2018-12-25T18:20:14.801Z,15.70
2018-12-25T18:22:42.454Z,13.77
2018-12-25T18:25:10.233Z,13.20
2018-12-25T18:27:37.946Z,12.90
2018-12-25T18:30:05.925Z,13.40
2018-12-25T18:32:33.697Z,12.07
2018-12-25T18:35:01.784Z,12.27
2018-12-25T18:37:29.719Z,12.67
2018-12-25T18:39:57.682Z,12.63
2018-12-25T18:42:25.452Z,12.57
2018-12-25T18:44:53.166Z,12.53
2018-12-25T18:47:20.853Z,12.30
2018-12-25T18:49:48.529Z,13.00
2018-12-25T18:52:16.224Z,13.77
2018-12-25T18:54:43.928Z,14.13
2018-12-25T18:57:11.633Z,14.87
2018-12-25T18:59:39.862Z,13.23
2018-12-25T19:02:07.559Z,13.47
2018-12-25T19:04:35.389Z,13.23
2018-12-25T19:07:03.088Z,12.57
2018-12-25T19:09:30.996Z,13.33
2018-12-25T19:11:58.677Z,12.37
2018-12-25T19:14:26.349Z,14.53
2018-12-25T19:16:54.048Z,12.23
2018-12-25T19:19:21.773Z,12.27
2018-12-25T19:21:49.564Z,12.30
2018-12-25T19:24:17.212Z,12.70
2018-12-25T19:26:45.151Z,12.43
2018-12-25T19:29:12.931Z,12.33
2018-12-25T19:31:40.581Z,13.37
2018-12-25T19:34:08.530Z,13.03
2018-12-25T19:36:36.337Z,13.07
2018-12-25T19:39:06.364Z,13.03
2018-12-25T19:41:34.180Z,13.57
2018-12-25T19:44:03.711Z,13.83
2018-12-25T19:46:31.522Z,15.87
2018-12-25T19:48:59.263Z,15.37
2018-12-25T19:51:26.950Z,15.97
2018-12-25T19:53:54.694Z,16.23
2018-12-25T19:56:22.394Z,13.73
2018-12-25T19:58:50.054Z,14.50
2018-12-25T20:01:17.783Z,13.97
2018-12-25T20:04:00.760Z,12.90
2018-12-25T20:07:08.752Z,12.97
2018-12-25T20:10:16.401Z,14.60
2018-12-25T20:13:24.645Z,16.40
2018-12-25T20:16:33.996Z,16.43
2018-12-25T20:19:30.150Z,14.33
2018-12-25T20:22:45.374Z,14.90
2018-12-25T20:25:47.746Z,15.33
2018-12-25T20:28:41.500Z,16.93
2018-12-25T20:31:45.228Z,15.03
2018-12-25T20:34:56.204Z,14.57
2018-12-25T20:37:54.583Z,13.07
2018-12-25T20:40:57.191Z,10.90
2018-12-25T20:44:33.670Z,8.83
2018-12-25T20:47:31.960Z,8.57
2018-12-25T20:50:44.304Z,8.17
2018-12-25T20:53:55.021Z,8.43
2018-12-25T20:57:09.052Z,8.50
2018-12-25T21:00:26.682Z,8.77
2018-12-25T21:03:25.924Z,7.80
2018-12-25T21:06:39.804Z,8.70
2018-12-25T21:09:52.380Z,8.87
2018-12-25T21:12:57.077Z,11.20
2018-12-25T21:16:02.904Z,9.93
2018-12-25T21:19:28.186Z,8.00
2018-12-25T21:22:36.438Z,7.93
2018-12-25T21:25:40.131Z,7.60
2018-12-25T21:28:07.026Z,7.97
2018-12-25T21:30:34.917Z,7.47
2018-12-25T21:33:02.804Z,7.43
2018-12-25T21:35:30.506Z,7.90
2018-12-25T21:37:58.509Z,8.50
2018-12-25T21:40:27.101Z,7.43
2018-12-25T21:42:56.322Z,8.37
2018-12-25T21:45:24.159Z,9.10
2018-12-25T21:47:52.962Z,9.30
2018-12-25T21:50:21.318Z,9.10
2018-12-25T21:52:49.838Z,9.23
2018-12-25T21:55:18.975Z,8.87
2018-12-25T21:57:48.155Z,9.23
2018-12-25T22:00:17.233Z,9.63
2018-12-25T22:02:44.976Z,10.77
2018-12-25T22:05:12.896Z,10.10
2018-12-25T22:07:40.537Z,9.97
2018-12-25T22:10:08.493Z,7.67
2018-12-25T22:12:36.333Z,8.03
2018-12-25T22:15:04.789Z,7.13
2018-12-25T22:17:32.839Z,7.70
2018-12-25T22:20:01.591Z,9.30
2018-12-25T22:22:29.259Z,8.70
2018-12-25T22:24:57.133Z,7.87
2018-12-25T22:27:24.823Z,6.17
2018-12-25T22:29:52.618Z,5.80
2018-12-25T22:32:20.305Z,6.43
2018-12-25T22:34:48.056Z,5.37
2018-12-25T22:37:15.784Z,4.80
2018-12-25T22:39:43.530Z,4.40
2018-12-25T22:42:11.239Z,4.70
2018-12-25T22:44:38.903Z,5.17
2018-12-25T22:47:06.593Z,5.27
2018-12-25T22:49:34.329Z,4.87
2018-12-25T22:52:02.238Z,5.00
2018-12-25T22:54:29.972Z,4.83
2018-12-25T22:56:57.784Z,4.73
2018-12-25T22:59:25.450Z,4.60
2018-12-25T23:01:53.113Z,4.50
2018-12-25T23:04:20.861Z,4.30
2018-12-25T23:06:48.529Z,4.90
2018-12-25T23:09:16.444Z,4.47
2018-12-25T23:11:45.121Z,4.37
2018-12-25T23:14:12.935Z,4.07
2018-12-25T23:16:40.642Z,4.20
2018-12-25T23:19:08.335Z,4.20
2018-12-25T23:21:36.125Z,3.60
2018-12-25T23:24:04.025Z,4.00
2018-12-25T23:26:31.832Z,3.80
2018-12-25T23:28:59.557Z,4.30
2018-12-25T23:31:27.309Z,4.27
2018-12-25T23:33:55.348Z,4.20
2018-12-25T23:36:26.069Z,4.47
2018-12-25T23:38:53.797Z,4.50
2018-12-25T23:41:21.481Z,4.50
2018-12-25T23:43:49.287Z,4.73
2018-12-25T23:46:17.507Z,4.80
2018-12-25T23:48:45.186Z,4.60
2018-12-25T23:51:13.095Z,4.37
2018-12-25T23:53:40.940Z,3.97
2018-12-25T23:56:08.679Z,3.97
2018-12-25T23:58:36.522Z,4.60
